INFORMAÇÕES METEOROLÓGICAS
METAR FOR SBCP
ADDS - METARS form results

(1111 UTC 14 December 2018)
Data provider http://aviationweather.gov/metar/data/
 
METAR text: SBCP 141100Z 28002KT CAVOK 27/24 Q1015
Conditions at: SBCP (CAMPOS/BARTOLOME, BR) observed 1100 UTC 14 December 2018
Temperature: 27.0°C (81°F)
Dewpoint: 24.0°C (75°F) [RH = 84%]
Pressure (altimeter): 29.97 inches Hg (1015.0 mb)
Winds: from the W (280 degrees) at 2 MPH (2 knots; 1.0 m/s)
Visibility: 6 or more miles (10+ km)
Ceiling: ceiling and visibility are OK
Clouds: unknown
Weather: no significant weather observed at this time

METAR text: SBCP 141045Z 30002KT 9999 SCT006 26/24 Q1015
Conditions at: SBCP (CAMPOS/BARTOLOME, BR) observed 1045 UTC 14 December 2018
Temperature: 26.0°C (79°F)
Dewpoint: 24.0°C (75°F) [RH = 89%]
Pressure (altimeter): 29.97 inches Hg (1015.0 mb)
Winds: from the WNW (300 degrees) at 2 MPH (2 knots; 1.0 m/s)
Visibility: 6 or more miles (10+ km)
Ceiling: at least 12,000 feet AGL
Clouds: scattered clouds at 600 feet AGL
Weather: no significant weather observed at this time

Forecast for: SBCP (CAMPOS/BARTOLOME, BR)
Text: TAF SBCP 140300Z 1406/1418 36006KT CAVOK TN24/1409Z TX36/1416Z RMK PGX
Forecast period: 0600 to 1800 UTC 14 December 2018
Forecast type: FROM: standard forecast or significant change
Winds: from the N (360 degrees) at 7 MPH (6 knots; 3.1 m/s)
Visibility: 6 or more miles 10+ km)
Ceiling: unknown
Clouds: missing
Weather: no significant weather forecast for this period

 MAPA DO AEROPORTO

 INFORMAÇÕES DA PISTA
Pista 7 Tamanho da pista 5066 ft Largura da pista 148 ft
Elevação da pista 0 ft Ranhura da pista 0 ft Proa da pista 0
Pista 25 Tamanho da pista 5066 ft Largura da pista 148 ft
Elevação da pista 0 ft Ranhura da pista 0 ft Proa da pista 0

 FREQUÊNCIAS DO AEROPORTO
Tipo AFIS Nome CAMPOS RDO Frequência 125.7 MHZ

 AUXÍLIOS DE NAVEGAÇÃO PRÓXIMOS AO AEROPORTO
Tipo NDB Nome Campos Frequência 225 KHZ





Powered by Virtual Airlines Manager [v2.6.2]